Haderslev Airport


Codes: EKHV/
Name: Haderslev Airport
City: Haderslev
Country: Denmark
Elevation: 81 ft.

Photos at Haderslev Airport


   Photos courtesy of SpottingLog. You can add your own sightings and photos by signing up for a free trial today.



No photos found.

Weather at Haderslev Airport


Time (UTC)DescriptionTempratureWindCloud coverageVisibilityPressureHumidity
21-Jun-2024 12:00Broken Clouds19°C9 mph, SE80%10000m1015hPa66%
21-Jun-2024 15:00Overcast Clouds17°C4 mph, E92%10000m1013hPa77%
21-Jun-2024 18:00Overcast Clouds16°C11 mph, NE100%10000m1010hPa81%
21-Jun-2024 21:00Light Rain14°C11 mph, E100%9972m1009hPa95%
22-Jun-2024 00:00Moderate Rain14°C9 mph, NE100%96m1007hPa99%
22-Jun-2024 03:00Light Rain14°C9 mph, NE100%336m1006hPa99%
22-Jun-2024 06:00Light Rain14°C9 mph, N100%8838m1006hPa98%
22-Jun-2024 09:00Light Rain13°C9 mph, NW100%10000m1008hPa98%
22-Jun-2024 12:00Light Rain13°C11 mph, NW100%10000m1009hPa96%
22-Jun-2024 15:00Light Rain13°C9 mph, NW100%10000m1010hPa95%
22-Jun-2024 18:00Overcast Clouds15°C9 mph, NW98%10000m1011hPa89%
22-Jun-2024 21:00Broken Clouds10°C9 mph, NW74%10000m1013hPa97%
23-Jun-2024 00:00Broken Clouds9°C9 mph, NW84%10000m1014hPa98%
23-Jun-2024 03:00Scattered Clouds9°C9 mph, NW33%10000m1015hPa99%
23-Jun-2024 06:00Scattered Clouds14°C9 mph, NW29%10000m1016hPa87%
23-Jun-2024 09:00Scattered Clouds18°C11 mph, NW32%10000m1017hPa67%
23-Jun-2024 12:00Broken Clouds19°C11 mph, W67%10000m1017hPa64%
23-Jun-2024 15:00Overcast Clouds19°C13 mph, W100%10000m1018hPa70%
23-Jun-2024 18:00Broken Clouds16°C11 mph, W69%10000m1018hPa83%
23-Jun-2024 21:00Scattered Clouds12°C9 mph, W43%10000m1019hPa97%
24-Jun-2024 00:00Broken Clouds11°C7 mph, W67%10000m1019hPa99%
24-Jun-2024 03:00Broken Clouds9°C9 mph, NW54%10000m1019hPa97%
24-Jun-2024 06:00Scattered Clouds13°C11 mph, NW31%10000m1020hPa81%
24-Jun-2024 09:00Clear Sky17°C11 mph, W0%10000m1020hPa63%
24-Jun-2024 12:00Clear Sky19°C13 mph, NW0%10000m1020hPa59%
24-Jun-2024 15:00Clear Sky19°C11 mph, NW0%10000m1019hPa60%
24-Jun-2024 18:00Clear Sky17°C9 mph, NW1%10000m1019hPa75%
24-Jun-2024 21:00Clear Sky11°C7 mph, NW7%10000m1020hPa92%
25-Jun-2024 00:00Scattered Clouds9°C4 mph, NW26%10000m1020hPa93%
25-Jun-2024 03:00Few Clouds9°C0 mph, E15%10000m1019hPa91%
25-Jun-2024 06:00Few Clouds15°C4 mph, SE12%10000m1019hPa77%
25-Jun-2024 09:00Clear Sky18°C7 mph, SE5%10000m1019hPa69%
25-Jun-2024 12:00Clear Sky20°C9 mph, SE5%10000m1019hPa66%
25-Jun-2024 15:00Clear Sky20°C9 mph, SE5%10000m1018hPa63%
25-Jun-2024 18:00Clear Sky19°C9 mph, E6%10000m1017hPa83%
25-Jun-2024 21:00Broken Clouds14°C9 mph, E63%10000m1017hPa89%
26-Jun-2024 00:00Broken Clouds13°C9 mph, E64%10000m1016hPa94%
26-Jun-2024 03:00Broken Clouds13°C9 mph, E82%10000m1015hPa91%
26-Jun-2024 06:00Overcast Clouds16°C11 mph, E92%10000m1015hPa79%
26-Jun-2024 09:00Overcast Clouds19°C16 mph, E100%10000m1014hPa66%